createdAt,value
2022-08-10T00:01:52.243Z,3.60
2022-08-10T00:04:24.121Z,3.20
2022-08-10T00:06:55.740Z,3.35
2022-08-10T00:09:24.452Z,3.03
2022-08-10T00:11:51.855Z,3.08
2022-08-10T00:14:19.277Z,3.10
2022-08-10T00:16:46.553Z,2.72
2022-08-10T00:19:16.778Z,3.60
2022-08-10T00:21:47.431Z,3.15
2022-08-10T00:24:15.405Z,3.17
2022-08-10T00:27:52.230Z,3.20
2022-08-10T00:29:30.083Z,2.95
2022-08-10T00:31:59.104Z,4.07
2022-08-10T00:34:32.439Z,3.40
2022-08-10T00:37:00.303Z,3.05
2022-08-10T00:39:29.277Z,3.70
2022-08-10T00:42:06.880Z,3.55
2022-08-10T00:44:50.247Z,4.03
2022-08-10T00:47:36.287Z,3.20
2022-08-10T00:50:07.206Z,3.40
2022-08-10T00:52:36.955Z,3.22
2022-08-10T00:55:06.253Z,2.80
2022-08-10T00:57:35.225Z,3.97
2022-08-10T01:00:05.647Z,3.30
2022-08-10T01:02:33.521Z,3.15
2022-08-10T01:05:15.633Z,3.22
2022-08-10T01:07:51.366Z,3.65
2022-08-10T01:10:54.553Z,3.67
2022-08-10T01:13:44.263Z,2.97
2022-08-10T01:17:01.891Z,3.83
2022-08-10T01:19:59.700Z,3.40
2022-08-10T01:22:53.153Z,3.15
2022-08-10T01:26:12.444Z,3.78
2022-08-10T01:28:58.059Z,3.57
2022-08-10T01:31:32.197Z,3.75
2022-08-10T01:34:07.839Z,3.35
2022-08-10T01:37:01.304Z,3.28
2022-08-10T01:39:39.547Z,3.58
2022-08-10T01:42:15.887Z,3.50
2022-08-10T01:45:17.513Z,3.60
2022-08-10T01:48:06.424Z,4.35
2022-08-10T01:50:59.415Z,3.35
2022-08-10T01:53:53.652Z,3.22
2022-08-10T01:56:24.707Z,3.65
2022-08-10T01:58:59.855Z,3.60
2022-08-10T02:01:32.640Z,3.67
2022-08-10T02:04:06.928Z,3.83
2022-08-10T02:06:46.089Z,4.03
2022-08-10T02:09:19.956Z,4.03
2022-08-10T02:12:06.346Z,3.85
2022-08-10T02:14:46.961Z,3.80
2022-08-10T02:17:58.492Z,3.95
2022-08-10T02:20:18.374Z,3.80
2022-08-10T02:22:53.260Z,4.07
2022-08-10T02:25:40.936Z,4.63
2022-08-10T02:28:29.822Z,4.18
2022-08-10T02:31:16.841Z,3.50
2022-08-10T02:33:57.208Z,4.13
2022-08-10T02:36:29.661Z,3.90
2022-08-10T02:39:01.983Z,4.60
2022-08-10T02:45:12.621Z,4.15
2022-08-10T02:45:23.510Z,4.07
2022-08-10T02:48:06.006Z,3.78
2022-08-10T02:50:40.122Z,4.22
2022-08-10T02:53:51.390Z,4.32
2022-08-10T02:56:39.800Z,4.18
2022-08-10T02:59:22.585Z,4.35
2022-08-10T03:01:54.464Z,4.47
2022-08-10T03:04:55.442Z,4.65
2022-08-10T03:07:43.261Z,4.63
2022-08-10T03:10:32.573Z,4.32
2022-08-10T03:13:31.796Z,4.53
2022-08-10T03:16:01.573Z,4.35
2022-08-10T03:18:32.683Z,4.13
2022-08-10T03:21:00.957Z,4.30
2022-08-10T03:23:29.355Z,4.47
2022-08-10T03:25:59.191Z,4.53
2022-08-10T03:28:32.533Z,4.70
2022-08-10T03:31:01.697Z,4.75
2022-08-10T03:33:37.109Z,4.72
2022-08-10T03:36:41.943Z,5.97
2022-08-10T03:38:53.515Z,4.80
2022-08-10T03:41:35.759Z,4.82
2022-08-10T03:46:37.410Z,5.47
2022-08-10T03:49:05.916Z,4.78
2022-08-10T03:51:34.872Z,4.82
2022-08-10T03:54:07.362Z,5.18
2022-08-10T03:56:40.521Z,5.05
2022-08-10T03:59:12.343Z,5.22
2022-08-10T04:02:45.458Z,4.47
2022-08-10T04:04:30.976Z,5.18
2022-08-10T04:07:00.327Z,5.43
2022-08-10T04:09:55.668Z,5.05
2022-08-10T04:12:18.309Z,5.00
2022-08-10T04:14:50.358Z,5.88
2022-08-10T04:18:01.169Z,4.97
2022-08-10T04:20:37.990Z,5.05
2022-08-10T04:23:23.726Z,4.93
2022-08-10T04:25:52.710Z,5.40
2022-08-10T04:28:20.736Z,5.80
2022-08-10T04:30:52.969Z,5.70
2022-08-10T04:35:52.175Z,5.55
2022-08-10T04:38:20.702Z,5.30
2022-08-10T04:40:48.283Z,5.32
2022-08-10T04:43:15.865Z,6.15
2022-08-10T04:45:49.470Z,5.38
2022-08-10T04:48:40.877Z,6.25
2022-08-10T04:51:10.755Z,6.50
2022-08-10T04:54:04.597Z,7.40
2022-08-10T04:56:34.942Z,6.95
2022-08-10T05:02:21.623Z,7.22
2022-08-10T05:04:38.458Z,6.85
2022-08-10T05:07:17.049Z,6.32
2022-08-10T05:10:04.614Z,6.85
2022-08-10T05:12:39.005Z,6.85
2022-08-10T05:15:11.786Z,6.95
2022-08-10T05:17:41.549Z,6.80
2022-08-10T05:20:29.130Z,7.20
2022-08-10T05:22:56.181Z,6.85
2022-08-10T05:25:23.270Z,7.00
2022-08-10T05:27:52.328Z,7.00
2022-08-10T05:30:24.919Z,7.03
2022-08-10T05:32:57.138Z,6.95
2022-08-10T05:35:52.441Z,6.85
2022-08-10T05:38:18.146Z,6.88
2022-08-10T05:40:47.876Z,7.20
2022-08-10T05:43:21.219Z,6.65
2022-08-10T05:46:17.683Z,6.53
2022-08-10T05:48:58.858Z,6.55
2022-08-10T05:51:30.275Z,6.70
2022-08-10T05:54:02.155Z,5.45
2022-08-10T05:56:55.678Z,6.45
2022-08-10T06:00:12.679Z,5.38
2022-08-10T06:02:34.968Z,5.03
2022-08-10T06:05:16.231Z,4.63
2022-08-10T06:07:51.908Z,4.85
2022-08-10T06:10:31.509Z,4.78
2022-08-10T06:13:29.634Z,5.47
2022-08-10T06:16:12.649Z,3.92
2022-08-10T06:18:40.898Z,4.45
2022-08-10T06:21:09.692Z,3.50
2022-08-10T06:23:39.433Z,3.45
2022-08-10T06:26:11.755Z,3.70
2022-08-10T06:29:07.090Z,3.50
2022-08-10T06:31:48.032Z,3.22
2022-08-10T06:34:34.550Z,3.17
2022-08-10T06:37:08.182Z,2.97
2022-08-10T06:39:37.050Z,3.10
2022-08-10T06:42:38.038Z,3.33
2022-08-10T06:45:35.386Z,3.20
2022-08-10T06:48:04.895Z,4.07
2022-08-10T06:50:58.022Z,2.70
2022-08-10T06:53:53.343Z,2.90
2022-08-10T06:56:37.628Z,2.80
2022-08-10T06:59:30.158Z,2.88
2022-08-10T07:02:25.108Z,2.50
2022-08-10T07:05:01.061Z,2.78
2022-08-10T07:07:37.818Z,2.38
2022-08-10T07:10:06.194Z,2.63
2022-08-10T07:12:36.631Z,2.22
2022-08-10T07:15:05.124Z,2.40
2022-08-10T07:17:37.323Z,2.53
2022-08-10T07:20:09.511Z,2.25
2022-08-10T07:23:01.648Z,2.33
2022-08-10T07:25:29.580Z,2.13
2022-08-10T07:28:01.789Z,1.50
2022-08-10T07:30:32.933Z,2.65
2022-08-10T07:33:02.783Z,2.58
2022-08-10T07:35:42.916Z,2.10
2022-08-10T07:38:31.865Z,2.25
2022-08-10T07:41:02.839Z,2.50
2022-08-10T07:43:40.548Z,2.00
2022-08-10T07:46:24.748Z,2.00
2022-08-10T07:49:02.919Z,2.10
2022-08-10T07:51:54.911Z,2.10
2022-08-10T07:54:25.504Z,2.25
2022-08-10T07:56:59.929Z,1.80
2022-08-10T07:59:45.050Z,1.75
2022-08-10T08:02:50.440Z,1.40
2022-08-10T08:05:29.892Z,1.50
2022-08-10T08:08:15.928Z,1.40
2022-08-10T08:10:43.498Z,1.63
2022-08-10T08:13:11.589Z,1.70
2022-08-10T08:16:19.941Z,1.40
2022-08-10T08:18:29.369Z,1.38
2022-08-10T08:20:58.245Z,1.20
2022-08-10T08:24:16.396Z,1.30
2022-08-10T08:26:18.655Z,1.35
2022-08-10T08:28:46.511Z,1.58
2022-08-10T08:31:16.067Z,1.50
2022-08-10T08:33:49.053Z,1.00
2022-08-10T08:36:19.852Z,1.10
2022-08-10T08:38:48.366Z,0.93
2022-08-10T08:41:55.758Z,1.00
2022-08-10T08:45:00.609Z,1.30
2022-08-10T08:48:04.687Z,1.05
2022-08-10T08:51:10.860Z,1.15
2022-08-10T08:54:01.207Z,1.20
2022-08-10T08:56:59.978Z,1.00
2022-08-10T09:00:06.949Z,1.15
2022-08-10T09:03:15.916Z,1.98
2022-08-10T09:05:59.490Z,1.52
2022-08-10T09:08:42.902Z,1.40
2022-08-10T09:11:34.123Z,2.53
2022-08-10T09:14:33.196Z,2.17
2022-08-10T09:17:19.010Z,1.80
2022-08-10T09:20:08.468Z,1.85
2022-08-10T09:22:57.276Z,1.83
2022-08-10T09:25:32.666Z,1.80
2022-08-10T09:28:16.993Z,1.98
2022-08-10T09:31:18.762Z,1.73
2022-08-10T09:36:25.147Z,1.80
2022-08-10T09:37:16.677Z,1.45
2022-08-10T09:43:24.963Z,1.50
2022-08-10T09:46:20.819Z,1.58
2022-08-10T09:49:04.737Z,1.50
2022-08-10T09:52:07.317Z,1.25
2022-08-10T09:55:04.795Z,1.45
2022-08-10T09:57:58.913Z,1.08
2022-08-10T10:01:56.410Z,0.90
2022-08-10T10:04:30.901Z,1.08
2022-08-10T10:07:08.643Z,0.90
2022-08-10T10:10:08.989Z,1.00
2022-08-10T10:13:06.137Z,0.93
2022-08-10T10:16:24.397Z,0.90
2022-08-10T10:19:15.966Z,0.90
2022-08-10T10:25:19.771Z,0.80
2022-08-10T10:28:44.451Z,0.95
2022-08-10T10:31:53.641Z,1.00
2022-08-10T10:35:07.789Z,1.00
2022-08-10T10:38:00.920Z,1.02
2022-08-10T10:40:32.753Z,1.00
2022-08-10T10:43:51.637Z,0.80
2022-08-10T10:46:48.427Z,0.90
2022-08-10T10:49:42.935Z,1.27
2022-08-10T10:53:21.384Z,0.80
2022-08-10T10:56:15.475Z,0.77
2022-08-10T10:59:15.322Z,0.93
2022-08-10T11:04:59.249Z,1.00
2022-08-10T11:07:40.291Z,0.77
2022-08-10T11:10:32.897Z,0.85
2022-08-10T11:14:25.050Z,0.90
2022-08-10T11:16:19.990Z,0.60
2022-08-10T11:20:02.387Z,1.13
2022-08-10T11:22:59.123Z,0.98
2022-08-10T11:25:56.069Z,0.77
2022-08-10T11:28:50.145Z,0.70
2022-08-10T11:31:37.769Z,0.75
2022-08-10T11:35:11.296Z,0.80
2022-08-10T11:38:32.900Z,1.10
2022-08-10T11:42:09.257Z,1.42
2022-08-10T11:44:43.529Z,0.90
2022-08-10T11:47:27.643Z,1.00
2022-08-10T11:50:17.542Z,1.00
2022-08-10T11:53:20.923Z,0.70
2022-08-10T11:55:56.190Z,0.73
2022-08-10T11:58:47.214Z,1.35
2022-08-10T12:01:19.024Z,0.50
2022-08-10T12:03:48.245Z,0.70
2022-08-10T12:06:33.991Z,0.70
2022-08-10T12:11:58.263Z,0.77
2022-08-10T12:14:41.841Z,0.90
2022-08-10T12:17:40.914Z,0.80
2022-08-10T12:20:26.315Z,0.75
2022-08-10T12:23:10.596Z,1.15
2022-08-10T12:25:57.821Z,0.80
2022-08-10T12:28:50.295Z,0.80
2022-08-10T12:31:31.070Z,0.50
2022-08-10T12:34:20.175Z,1.02
2022-08-10T12:37:22.690Z,0.70
2022-08-10T12:40:34.344Z,0.80
2022-08-10T12:44:05.553Z,0.88
2022-08-10T12:46:32.753Z,0.90
2022-08-10T12:49:33.542Z,1.15
2022-08-10T12:52:27.619Z,1.25
2022-08-10T12:54:58.836Z,0.90
2022-08-10T12:57:28.013Z,0.80
2022-08-10T13:00:01.618Z,0.77
2022-08-10T13:02:33.773Z,0.68
2022-08-10T13:05:11.214Z,0.98
2022-08-10T13:08:25.612Z,0.75
2022-08-10T13:10:33.135Z,0.95
2022-08-10T13:13:02.162Z,0.77
2022-08-10T13:15:49.491Z,0.77
2022-08-10T13:18:34.635Z,1.30
2022-08-10T13:21:20.306Z,1.30
2022-08-10T13:24:23.963Z,1.10
2022-08-10T13:27:24.607Z,1.20
2022-08-10T13:30:12.092Z,1.20
2022-08-10T13:32:47.045Z,0.60
2022-08-10T13:35:17.681Z,0.70
2022-08-10T13:37:48.332Z,0.70
2022-08-10T13:40:20.489Z,0.80
2022-08-10T13:42:49.773Z,1.13
2022-08-10T13:45:21.172Z,0.98
2022-08-10T13:48:14.661Z,1.00
2022-08-10T13:50:43.847Z,1.20
2022-08-10T13:53:15.438Z,1.20
2022-08-10T13:55:54.781Z,0.95
2022-08-10T13:58:32.925Z,0.93
2022-08-10T14:01:15.310Z,1.08
2022-08-10T14:03:44.720Z,0.90
2022-08-10T14:06:20.925Z,0.90
2022-08-10T14:09:01.592Z,1.10
2022-08-10T14:11:30.680Z,0.82
2022-08-10T14:13:59.116Z,0.80
2022-08-10T14:16:27.224Z,0.90
2022-08-10T14:18:58.162Z,0.90
2022-08-10T14:21:25.516Z,0.80
2022-08-10T14:23:53.913Z,0.88
2022-08-10T14:26:29.107Z,0.98
2022-08-10T14:29:09.492Z,0.90
2022-08-10T14:31:39.234Z,0.88
2022-08-10T14:36:14.692Z,0.90
2022-08-10T14:37:44.875Z,1.20
2022-08-10T14:40:22.180Z,1.00
2022-08-10T14:43:01.768Z,0.90
2022-08-10T14:45:37.067Z,1.60
2022-08-10T14:48:14.626Z,1.02
2022-08-10T14:50:55.443Z,0.93
2022-08-10T14:53:27.431Z,0.90
2022-08-10T14:56:08.057Z,0.98
2022-08-10T15:02:00.535Z,0.75
2022-08-10T15:04:28.892Z,0.90
2022-08-10T15:09:59.400Z,0.97
2022-08-10T15:12:40.573Z,0.82
2022-08-10T15:15:16.503Z,1.20
2022-08-10T15:17:57.360Z,1.10
2022-08-10T15:20:27.838Z,1.48
2022-08-10T15:23:30.074Z,1.48
2022-08-10T15:26:11.170Z,1.50
2022-08-10T15:29:22.246Z,1.20
2022-08-10T15:31:55.488Z,1.02
2022-08-10T15:35:03.039Z,0.90
2022-08-10T15:37:39.412Z,1.00
2022-08-10T15:40:24.726Z,0.93
2022-08-10T15:43:05.618Z,1.10
2022-08-10T15:46:29.935Z,1.08
2022-08-10T15:49:05.719Z,1.10
2022-08-10T15:51:53.901Z,0.90
2022-08-10T15:54:33.781Z,1.42
2022-08-10T15:57:18.027Z,1.20
2022-08-10T15:59:55.020Z,1.23
2022-08-10T16:02:28.850Z,1.38
2022-08-10T16:05:21.664Z,1.77
2022-08-10T16:08:13.937Z,1.10
2022-08-10T16:10:53.446Z,1.10
2022-08-10T16:13:50.581Z,1.17
2022-08-10T16:16:14.114Z,0.90
2022-08-10T16:18:45.752Z,1.10
2022-08-10T16:21:23.990Z,1.30
2022-08-10T16:24:15.318Z,0.80
2022-08-10T16:26:53.247Z,1.00
2022-08-10T16:29:27.509Z,1.13
2022-08-10T16:32:04.277Z,1.10
2022-08-10T16:34:36.827Z,1.13
2022-08-10T16:37:14.015Z,1.30
2022-08-10T16:39:58.077Z,1.38
2022-08-10T16:42:42.987Z,1.60
2022-08-10T16:45:39.265Z,1.23
2022-08-10T16:48:09.698Z,1.30
2022-08-10T16:51:07.189Z,1.10
2022-08-10T16:53:58.092Z,1.25
2022-08-10T16:56:49.056Z,1.17
2022-08-10T16:59:24.358Z,1.20
2022-08-10T17:01:54.197Z,1.27
2022-08-10T17:04:23.442Z,1.50
2022-08-10T17:07:02.663Z,1.30
2022-08-10T17:09:34.261Z,1.50
2022-08-10T17:12:11.445Z,1.38
2022-08-10T17:14:41.735Z,1.48
2022-08-10T17:17:27.566Z,1.60
2022-08-10T17:20:31.141Z,1.65
2022-08-10T17:22:54.888Z,1.17
2022-08-10T17:25:45.899Z,1.40
2022-08-10T17:28:32.763Z,1.30
2022-08-10T17:31:18.981Z,1.63
2022-08-10T17:34:21.372Z,1.52
2022-08-10T17:36:57.315Z,1.63
2022-08-10T17:39:43.376Z,1.70
2022-08-10T17:42:12.271Z,1.20
2022-08-10T17:44:40.875Z,1.50
2022-08-10T17:47:11.672Z,1.95
2022-08-10T17:49:39.981Z,2.05
2022-08-10T17:52:11.092Z,2.38
2022-08-10T17:54:47.561Z,1.98
2022-08-10T17:57:21.572Z,1.77
2022-08-10T17:59:52.880Z,1.40
2022-08-10T18:02:27.579Z,1.92
2022-08-10T18:04:58.814Z,1.45
2022-08-10T18:07:41.269Z,1.63
2022-08-10T18:10:11.536Z,1.40
2022-08-10T18:12:49.956Z,1.65
2022-08-10T18:15:24.968Z,1.63
2022-08-10T18:17:59.891Z,1.75
2022-08-10T18:20:35.704Z,1.83
2022-08-10T18:23:05.141Z,1.73
2022-08-10T18:25:40.493Z,2.03
2022-08-10T18:28:16.249Z,2.05
2022-08-10T18:33:50.495Z,2.00
2022-08-10T18:36:18.882Z,3.03
2022-08-10T18:38:50.331Z,3.45
2022-08-10T18:41:30.685Z,2.80
2022-08-10T18:44:15.436Z,3.15
2022-08-10T18:46:59.925Z,3.13
2022-08-10T18:49:40.557Z,2.80
2022-08-10T18:52:14.675Z,3.60
2022-08-10T18:54:53.798Z,3.53
2022-08-10T18:57:48.605Z,3.42
2022-08-10T19:00:19.327Z,3.95
2022-08-10T19:03:11.523Z,4.00
2022-08-10T19:09:03.106Z,3.55
2022-08-10T19:11:58.448Z,3.50
2022-08-10T19:14:37.667Z,3.85
2022-08-10T19:18:03.051Z,2.08
2022-08-10T19:21:33.124Z,2.53
2022-08-10T19:24:32.519Z,2.10
2022-08-10T19:27:33.551Z,2.10
2022-08-10T19:30:16.606Z,1.75
2022-08-10T19:33:14.220Z,2.10
2022-08-10T19:36:05.381Z,2.20
2022-08-10T19:38:50.267Z,1.98
2022-08-10T19:41:59.209Z,2.00
2022-08-10T19:45:01.132Z,1.73
2022-08-10T19:47:43.168Z,2.03
2022-08-10T19:50:19.946Z,2.17
2022-08-10T19:53:02.640Z,2.03
2022-08-10T19:56:01.937Z,1.77
2022-08-10T19:59:14.044Z,2.20
2022-08-10T20:01:55.386Z,2.05
2022-08-10T20:04:33.178Z,2.33
2022-08-10T20:07:13.649Z,1.98
2022-08-10T20:10:29.329Z,1.90
2022-08-10T20:13:21.936Z,1.80
2022-08-10T20:16:03.506Z,1.63
2022-08-10T20:19:05.489Z,1.67
2022-08-10T20:21:42.162Z,1.85
2022-08-10T20:24:32.447Z,1.40
2022-08-10T20:27:58.987Z,1.88
2022-08-10T20:30:15.732Z,2.22
2022-08-10T20:32:43.478Z,1.83
2022-08-10T20:35:53.271Z,1.70
2022-08-10T20:38:32.886Z,1.65
2022-08-10T20:41:24.570Z,1.63
2022-08-10T20:44:26.492Z,2.08
2022-08-10T20:47:17.226Z,2.38
2022-08-10T20:50:22.686Z,1.90
2022-08-10T20:52:52.849Z,2.08
2022-08-10T20:55:24.031Z,1.70
2022-08-10T20:58:37.876Z,1.83
2022-08-10T21:02:07.064Z,1.75
2022-08-10T21:04:51.881Z,2.33
2022-08-10T21:08:01.838Z,1.95
2022-08-10T21:11:02.996Z,1.88
2022-08-10T21:14:01.187Z,1.80
2022-08-10T21:16:47.492Z,1.80
2022-08-10T21:19:36.061Z,1.45
2022-08-10T21:22:23.814Z,2.78
2022-08-10T21:25:29.456Z,1.75
2022-08-10T21:28:31.677Z,1.70
2022-08-10T21:31:23.424Z,1.83
2022-08-10T21:33:59.343Z,2.08
2022-08-10T21:36:58.316Z,2.25
2022-08-10T21:39:43.375Z,2.38
2022-08-10T21:42:55.424Z,2.50
2022-08-10T21:46:15.724Z,2.57
2022-08-10T21:49:37.079Z,3.33
2022-08-10T21:52:35.872Z,2.78
2022-08-10T21:56:14.210Z,2.67
2022-08-10T21:59:24.492Z,2.33
2022-08-10T22:05:39.323Z,2.25
2022-08-10T22:11:49.191Z,2.15
2022-08-10T22:15:01.163Z,2.10
2022-08-10T22:18:05.035Z,2.13
2022-08-10T22:21:03.913Z,2.28
2022-08-10T22:24:34.389Z,2.00
2022-08-10T22:27:47.012Z,1.85
2022-08-10T22:30:41.450Z,1.95
2022-08-10T22:34:13.587Z,1.92
2022-08-10T22:37:33.418Z,2.03
2022-08-10T22:40:41.903Z,2.30
2022-08-10T22:43:45.391Z,2.40
2022-08-10T22:46:46.316Z,1.77
2022-08-10T22:49:21.067Z,2.58
2022-08-10T22:52:10.831Z,2.17
2022-08-10T22:55:18.037Z,3.80
2022-08-10T22:58:05.890Z,2.20
2022-08-10T23:00:34.218Z,2.35
2022-08-10T23:03:22.176Z,2.30
2022-08-10T23:06:11.576Z,2.92
2022-08-10T23:08:51.197Z,2.33
2022-08-10T23:11:33.097Z,2.55
2022-08-10T23:14:10.486Z,2.17
2022-08-10T23:17:09.041Z,2.47
2022-08-10T23:20:04.369Z,2.60
2022-08-10T23:22:44.677Z,2.67
2022-08-10T23:25:20.705Z,2.47
2022-08-10T23:27:55.909Z,2.53
2022-08-10T23:30:45.116Z,2.60
2022-08-10T23:33:37.676Z,2.42
2022-08-10T23:36:33.418Z,2.47
2022-08-10T23:41:53.288Z,2.47
2022-08-10T23:44:22.731Z,2.60
2022-08-10T23:46:51.595Z,2.88
2022-08-10T23:49:20.165Z,2.42
2022-08-10T23:51:55.510Z,2.70
2022-08-10T23:54:25.723Z,2.53
2022-08-10T23:57:01.004Z,2.58
2022-08-10T23:59:31.951Z,2.95
